General Aviation Weather

Text Reports

Enter one or more of the following location identifiers separated by a space:

Zip Code, Four-Character ICAO or Three-Character IATA airport codes.

METAR - Aviation Routine Weather Report
KCHK - Chickasha, Oklahoma
Updated at 3:55 PM GMT on April 21, 2014 (10:55 AM CDT):
METAR KCHK 211555Z AUTO 32003KT 7SM -RA SCT003 OVC036 16/16 A3002 RMK AO2 P0006
TAF - Terminal Area Forecast
KCHK - Chickasha, Oklahoma
Updated at 3:55 PM GMT on April 21, 2014 (10:55 AM CDT):
No TAF is currently available for this location.
Decoded:
No decoded TAF is available.
PIREP - Pilot Weather Report
KCHK - Chickasha, Oklahoma
Updated at 3:55 PM GMT on April 21, 2014 (10:55 AM CDT):
No PIREP is currently available for this location.
AIRMET - Airmens Meteorological Information
KCHK - Chickasha, Oklahoma
Updated at 3:55 PM GMT on April 21, 2014 (10:55 AM CDT):
No AIRMET is currently available for this location.
SIGMET - Significant Meteorological Information
KCHK - Chickasha, Oklahoma
Updated at 3:55 PM GMT on April 21, 2014 (10:55 AM CDT):
No SIGMET is currently available for this location.
NOTAM - Notice to Airmen
KCHK - Chickasha, Oklahoma
Updated at 3:55 PM GMT on April 21, 2014 (10:55 AM CDT):
No NOTAM is currently available for this location.
Forecast Area
KCHK - Chickasha, Oklahoma
Updated at 3:55 PM GMT on April 21, 2014 (10:55 AM CDT):
No NOTAM is currently available for this location.
Aviation Weather Maps